Time;durP1;ratioP1;P1;durP2;ratioP2;P2;SDS_P1;SDS_P2;PMS_P1;PMS_P2;Temp;Humidity;BMP_temperature;BMP_pressure;BME280_temperature;BME280_humidity;BME280_pressure;Samples;Min_cycle;Max_cycle;Signal;HPM_P1;HPM_P2
2022/01/01 00:01:31;;;;;;;;;;;;;;;3.23;100.00;98416.25;1635705;85;21110;-75
2022/01/01 00:03:57;;;;;;;;;;;;;;;3.23;100.00;98425.19;1627753;85;20467;-72
2022/01/01 00:06:24;;;;;;;;;;;;;;;3.25;100.00;98416.20;1642085;86;20135;-74
2022/01/01 00:08:50;;;;;;;;;;;;;;;3.26;100.00;98415.66;1636080;85;20486;-74
2022/01/01 00:11:17;;;;;;;;;;;;;;;3.28;100.00;98414.26;1645487;85;20219;-73
2022/01/01 00:13:43;;;;;;;;;;;;;;;3.30;100.00;98415.32;1646333;86;21506;-73
2022/01/01 00:16:09;;;;;;;;;;;;;;;3.30;100.00;98413.41;1654430;86;20319;-79
2022/01/01 00:18:36;;;;;;;;;;;;;;;3.33;100.00;98414.73;1642441;85;20180;-76
2022/01/01 00:21:04;;;;;;;;;;;;;;;3.35;100.00;98409.01;1637908;86;20603;-79
2022/01/01 00:23:30;;;;;;;;;;;;;;;3.36;100.00;98407.36;1632427;86;20546;-74
2022/01/01 00:25:57;;;;;;;;;;;;;;;3.39;100.00;98408.13;1645931;85;21003;-74
2022/01/01 00:28:25;;;;;;;;;;;;;;;3.44;100.00;98405.88;1634070;86;20164;-73
2022/01/01 00:30:52;;;;;;;;;;;;;;;3.46;100.00;98403.67;1646486;85;20223;-73
2022/01/01 00:33:20;;;;;;;;;;;;;;;3.47;100.00;98399.28;1648774;85;20194;-78
2022/01/01 00:35:46;;;;;;;;;;;;;;;3.52;100.00;98406.53;1631396;86;20482;-74
2022/01/01 00:38:13;;;;;;;;;;;;;;;3.55;100.00;98393.17;1647328;85;21049;-74
2022/01/01 00:40:39;;;;;;;;;;;;;;;3.59;100.00;98394.19;1655780;85;20230;-76
2022/01/01 00:43:06;;;;;;;;;;;;;;;3.61;100.00;98387.91;1645517;84;20123;-79
2022/01/01 00:45:34;;;;;;;;;;;;;;;3.64;100.00;98381.89;1635547;86;20203;-79
2022/01/01 00:48:00;;;;;;;;;;;;;;;3.70;100.00;98385.31;1637515;86;20148;-75
2022/01/01 00:50:26;;;;;;;;;;;;;;;3.74;100.00;98375.47;1620414;87;21798;-78
2022/01/01 00:52:52;;;;;;;;;;;;;;;3.78;100.00;98373.77;1635448;85;20137;-79
2022/01/01 00:55:19;;;;;;;;;;;;;;;3.84;100.00;98377.20;1649993;86;20148;-73
2022/01/01 00:57:47;;;;;;;;;;;;;;;3.88;100.00;98376.84;1653360;85;20448;-73
2022/01/01 01:00:14;;;;;;;;;;;;;;;3.92;100.00;98371.88;1654168;85;20101;-73
2022/01/01 01:02:40;;;;;;;;;;;;;;;3.95;100.00;98372.64;1652908;86;21756;-75
2022/01/01 01:05:07;;;;;;;;;;;;;;;4.00;100.00;98364.14;1648667;86;20122;-74
2022/01/01 01:07:33;;;;;;;;;;;;;;;4.06;100.00;98361.55;1652626;85;20173;-73
2022/01/01 01:10:00;;;;;;;;;;;;;;;4.10;100.00;98360.64;1648164;86;20156;-75
2022/01/01 01:12:35;;;;;;;;;;;;;;;4.14;100.00;98351.34;1650014;86;20106;-79
2022/01/01 01:14:56;;;;;;;;;;;;;;;4.17;100.00;98354.81;1654487;85;20094;-76
2022/01/01 01:17:22;;;;;;;;;;;;;;;4.20;100.00;98355.01;1652740;86;20090;-84
2022/01/01 01:19:50;;;;;;;;;;;;;;;4.23;100.00;98349.52;1658805;85;20088;-82
2022/01/01 01:22:16;;;;;;;;;;;;;;;4.28;100.00;98353.49;1651182;85;20102;-80
2022/01/01 01:24:43;;;;;;;;;;;;;;;4.31;100.00;98346.09;1650909;85;20210;-81
2022/01/01 01:27:09;;;;;;;;;;;;;;;4.32;100.00;98350.42;1649208;85;21134;-81
2022/01/01 01:29:41;;;;;;;;;;;;;;;4.32;100.00;98344.98;1660728;84;20092;-80
2022/01/01 01:32:05;;;;;;;;;;;;;;;4.33;100.00;98341.16;1650025;85;20196;-81
2022/01/01 01:34:32;;;;;;;;;;;;;;;4.38;100.00;98343.77;1653687;84;20191;-81
2022/01/01 01:36:59;;;;;;;;;;;;;;;4.40;100.00;98346.99;1651606;85;20093;-80
2022/01/01 01:39:25;;;;;;;;;;;;;;;4.41;100.00;98343.72;1652865;85;22034;-76
2022/01/01 01:41:52;;;;;;;;;;;;;;;4.45;100.00;98341.45;1646138;85;20082;-71
2022/01/01 01:44:23;;;;;;;;;;;;;;;4.51;100.00;98340.23;1655104;86;20123;-71
2022/01/01 01:46:50;;;;;;;;;;;;;;;4.54;100.00;98338.27;1654161;85;20446;-71
2022/01/01 01:49:18;;;;;;;;;;;;;;;4.54;100.00;98335.55;1651407;85;20105;-71
2022/01/01 01:51:44;;;;;;;;;;;;;;;4.55;100.00;98338.52;1642390;85;21187;-71
2022/01/01 01:54:10;;;;;;;;;;;;;;;4.56;100.00;98337.41;1653810;86;20265;-70
2022/01/01 01:56:37;;;;;;;;;;;;;;;4.59;100.00;98335.44;1652271;86;20441;-70
2022/01/01 01:59:03;;;;;;;;;;;;;;;4.59;100.00;98324.56;1653067;85;20187;-71
2022/01/01 02:01:31;;;;;;;;;;;;;;;4.61;100.00;98326.42;1626495;85;20149;-70
2022/01/01 02:03:58;;;;;;;;;;;;;;;4.61;100.00;98329.69;1652387;85;21121;-71
2022/01/01 02:06:24;;;;;;;;;;;;;;;4.61;100.00;98326.97;1655129;85;20139;-71
2022/01/01 02:08:52;;;;;;;;;;;;;;;4.62;100.00;98319.06;1643998;86;20088;-71
2022/01/01 02:11:21;;;;;;;;;;;;;;;4.62;100.00;98318.48;1630152;85;20126;-70
2022/01/01 02:18:53;;;;;;;;;;;;;;;4.65;100.00;98312.44;1624566;87;20138;-71
2022/01/01 02:21:20;;;;;;;;;;;;;;;4.68;100.00;98314.29;1639499;86;20133;-71
2022/01/01 02:23:48;;;;;;;;;;;;;;;4.72;100.00;98311.20;1627092;87;20203;-69
2022/01/01 02:26:16;;;;;;;;;;;;;;;4.72;100.00;98310.66;1625390;87;20114;-70
2022/01/01 02:28:46;;;;;;;;;;;;;;;4.72;100.00;98301.69;1626724;87;21165;-69
2022/01/01 02:31:16;;;;;;;;;;;;;;;4.75;100.00;98307.32;1627538;87;20131;-69
2022/01/01 02:33:43;;;;;;;;;;;;;;;4.78;100.00;98308.62;1624393;87;20087;-70
2022/01/01 02:36:10;;;;;;;;;;;;;;;4.78;100.00;98314.06;1624886;87;20147;-70
2022/01/01 02:38:36;;;;;;;;;;;;;;;4.78;100.00;98310.78;1625861;87;20441;-70
2022/01/01 02:41:03;;;;;;;;;;;;;;;4.79;100.00;98299.35;1624417;87;21077;-72
2022/01/01 02:43:32;;;;;;;;;;;;;;;4.81;100.00;98306.65;1624820;87;20286;-69
2022/01/01 02:45:58;;;;;;;;;;;;;;;4.83;100.00;98308.50;1625086;87;20167;-71
2022/01/01 02:48:25;;;;;;;;;;;;;;;4.82;100.00;98303.62;1619958;87;20460;-70
2022/01/01 02:50:51;;;;;;;;;;;;;;;4.83;100.00;98297.07;1625835;87;20099;-69
2022/01/01 02:53:17;;;;;;;;;;;;;;;4.84;100.00;98298.67;1624130;87;21110;-69
2022/01/01 02:55:44;;;;;;;;;;;;;;;4.84;100.00;98301.40;1624256;87;20241;-69
2022/01/01 02:58:10;;;;;;;;;;;;;;;4.85;100.00;98292.13;1626373;87;20151;-69
2022/01/01 03:00:44;;;;;;;;;;;;;;;4.87;100.00;98292.63;1624706;87;20127;-70
2022/01/01 03:03:11;;;;;;;;;;;;;;;4.89;100.00;98294.48;1625120;87;20175;-69
2022/01/01 03:05:37;;;;;;;;;;;;;;;4.90;100.00;98297.45;1624108;87;21576;-69
2022/01/01 03:08:04;;;;;;;;;;;;;;;4.92;100.00;98286.26;1624422;87;20281;-69
2022/01/01 03:10:31;;;;;;;;;;;;;;;4.92;100.00;98288.98;1631073;86;20213;-69
2022/01/01 03:12:58;;;;;;;;;;;;;;;4.94;100.00;98279.95;1644421;86;20474;-69
2022/01/01 03:15:25;;;;;;;;;;;;;;;4.95;100.00;98282.92;1622525;87;20107;-70
2022/01/01 03:17:52;;;;;;;;;;;;;;;4.96;100.00;98289.97;1631258;87;21199;-69
2022/01/01 03:20:19;;;;;;;;;;;;;;;4.98;100.00;98295.91;1628257;87;20206;-70
2022/01/01 03:22:47;;;;;;;;;;;;;;;5.01;100.00;98285.77;1627633;87;20109;-69
2022/01/01 03:25:13;;;;;;;;;;;;;;;5.02;100.00;98275.69;1625063;87;20735;-69
2022/01/01 03:27:40;;;;;;;;;;;;;;;5.03;100.00;98288.98;1628262;88;20473;-69
2022/01/01 03:30:07;;;;;;;;;;;;;;;5.04;100.00;98289.78;1625741;87;21530;-69
2022/01/01 03:32:34;;;;;;;;;;;;;;;5.04;100.00;98282.98;1626049;87;20092;-69
2022/01/01 03:35:01;;;;;;;;;;;;;;;5.04;100.00;98281.06;1624106;88;20115;-69
2022/01/01 03:37:27;;;;;;;;;;;;;;;5.05;100.00;98285.39;1623235;88;20159;-69
2022/01/01 03:39:53;;;;;;;;;;;;;;;5.06;100.00;98290.27;1629019;87;20582;-69
2022/01/01 03:42:20;;;;;;;;;;;;;;;5.08;100.00;98290.22;1635232;86;21571;-69
2022/01/01 03:44:46;;;;;;;;;;;;;;;5.09;100.00;98297.81;1634347;86;20119;-70
2022/01/01 03:47:12;;;;;;;;;;;;;;;5.09;100.00;98299.17;1644272;86;20163;-70
2022/01/01 03:49:39;;;;;;;;;;;;;;;5.09;100.00;98297.81;1605511;88;20094;-72
2022/01/01 03:52:06;;;;;;;;;;;;;;;5.08;100.00;98297.02;1612464;88;20112;-70
2022/01/01 03:54:34;;;;;;;;;;;;;;;5.10;100.00;98299.42;1642088;86;21109;-70
2022/01/01 03:57:01;;;;;;;;;;;;;;;5.10;100.00;98298.87;1642051;86;20282;-70
2022/01/01 03:59:27;;;;;;;;;;;;;;;5.09;100.00;98299.98;1637471;86;20509;-70
2022/01/01 04:01:55;;;;;;;;;;;;;;;5.12;100.00;98310.80;1621064;88;20146;-69
2022/01/01 04:04:23;;;;;;;;;;;;;;;5.14;100.00;98313.45;1623935;88;20436;-70
2022/01/01 04:06:49;;;;;;;;;;;;;;;5.14;100.00;98310.73;1623848;88;21887;-70
2022/01/01 04:09:16;;;;;;;;;;;;;;;5.14;100.00;98309.37;1624681;87;20319;-70
2022/01/01 04:11:43;;;;;;;;;;;;;;;5.14;100.00;98309.37;1622527;87;20157;-69
2022/01/01 04:14:12;;;;;;;;;;;;;;;5.15;100.00;98300.66;1623265;88;20131;-69
2022/01/01 04:16:38;;;;;;;;;;;;;;;5.16;100.00;98317.23;1623242;88;20102;-70
2022/01/01 04:19:04;;;;;;;;;;;;;;;5.16;100.00;98321.31;1620603;87;22188;-71
2022/01/01 04:21:31;;;;;;;;;;;;;;;5.17;100.00;98326.44;1625293;88;20125;-70
2022/01/01 04:23:58;;;;;;;;;;;;;;;5.18;100.00;98328.05;1621912;87;20094;-70
2022/01/01 04:26:25;;;;;;;;;;;;;;;5.19;100.00;98333.73;1634330;87;20141;-70
2022/01/01 04:28:51;;;;;;;;;;;;;;;5.24;100.00;98330.86;1627429;87;20493;-70
2022/01/01 04:31:18;;;;;;;;;;;;;;;5.26;100.00;98330.55;1641603;85;21155;-69
2022/01/01 04:33:47;;;;;;;;;;;;;;;5.25;100.00;98328.95;1624304;87;20110;-71
2022/01/01 04:36:13;;;;;;;;;;;;;;;5.26;100.00;98344.16;1651046;86;20239;-69
2022/01/01 04:38:42;;;;;;;;;;;;;;;5.26;100.00;98343.60;1650909;86;20092;-69
2022/01/01 04:41:12;;;;;;;;;;;;;;;5.29;100.00;98340.26;1651272;86;20090;-69
2022/01/01 04:43:42;;;;;;;;;;;;;;;5.28;100.00;98340.02;1648991;86;22179;-70
2022/01/01 04:46:09;;;;;;;;;;;;;;;5.29;100.00;98340.26;1650829;86;20309;-69
2022/01/01 04:48:37;;;;;;;;;;;;;;;5.30;100.00;98342.42;1651433;87;20131;-69
2022/01/01 04:51:07;;;;;;;;;;;;;;;5.30;100.00;98343.23;1651191;86;20454;-70
2022/01/01 04:53:35;;;;;;;;;;;;;;;5.29;100.00;98347.06;1647099;85;20122;-70
2022/01/01 04:56:06;;;;;;;;;;;;;;;5.37;100.00;98335.19;1651530;86;21128;-70
2022/01/01 04:58:30;;;;;;;;;;;;;;;5.39;100.00;98339.20;1648171;86;20148;-70
2022/01/01 05:00:57;;;;;;;;;;;;;;;5.38;100.00;98343.04;1640556;85;20473;-70
2022/01/01 05:03:23;;;;;;;;;;;;;;;5.38;100.00;98349.04;1647508;86;20098;-69
2022/01/01 05:05:49;;;;;;;;;;;;;;;5.38;100.00;98346.31;1651933;85;20118;-69
2022/01/01 05:08:15;;;;;;;;;;;;;;;5.37;100.00;98347.43;1638571;86;21135;-68
2022/01/01 05:10:44;;;;;;;;;;;;;;;5.40;100.00;98345.45;1630856;86;20483;-68
2022/01/01 05:13:10;;;;;;;;;;;;;;;5.43;100.00;98350.27;1648379;85;20132;-69
2022/01/01 05:15:37;;;;;;;;;;;;;;;5.43;100.00;98344.27;1684349;84;20186;-69
2022/01/01 05:18:05;;;;;;;;;;;;;;;5.46;100.00;98344.20;1660475;84;20086;-69
2022/01/01 05:20:33;;;;;;;;;;;;;;;5.48;100.00;98348.78;1664123;84;22001;-69
2022/01/01 05:23:00;;;;;;;;;;;;;;;5.48;100.00;98349.59;1669955;84;20423;-69
2022/01/01 05:25:26;;;;;;;;;;;;;;;5.51;100.00;98353.61;1637514;85;20189;-69
2022/01/01 05:27:54;;;;;;;;;;;;;;;5.53;100.00;98358.19;1632528;86;20184;-69
2022/01/01 05:30:20;;;;;;;;;;;;;;;5.56;100.00;98359.72;1642562;87;20441;-70
2022/01/01 05:32:47;;;;;;;;;;;;;;;5.56;100.00;98357.56;1634864;86;21094;-69
2022/01/01 05:35:14;;;;;;;;;;;;;;;5.56;100.00;98361.09;1651975;86;20104;-70
2022/01/01 05:37:41;;;;;;;;;;;;;;;5.57;100.00;98366.78;1656652;86;20124;-69
2022/01/01 05:40:09;;;;;;;;;;;;;;;5.59;100.00;98367.27;1655854;86;20096;-69
2022/01/01 05:42:37;;;;;;;;;;;;;;;5.60;100.00;98376.24;1659910;85;20154;-69
2022/01/01 05:45:04;;;;;;;;;;;;;;;5.60;100.00;98380.33;1665349;84;21104;-70
2022/01/01 05:47:32;;;;;;;;;;;;;;;5.61;100.00;98386.82;1657757;85;20123;-70
2022/01/01 05:49:59;;;;;;;;;;;;;;;5.63;100.00;98397.40;1667811;85;20098;-71
2022/01/01 05:52:25;;;;;;;;;;;;;;;5.63;100.00;98400.13;1658526;85;20154;-70
2022/01/01 05:54:52;;;;;;;;;;;;;;;5.64;100.00;98407.98;1641438;85;20158;-70
2022/01/01 05:57:18;;;;;;;;;;;;;;;5.67;100.00;98412.00;1653132;85;21707;-71
2022/01/01 05:59:44;;;;;;;;;;;;;;;5.73;100.00;98409.95;1651705;84;20464;-70
2022/01/01 06:02:11;;;;;;;;;;;;;;;5.73;100.00;98423.02;1618356;86;20358;-69
2022/01/01 06:04:38;;;;;;;;;;;;;;;5.74;100.00;98421.89;1634608;86;20200;-70
2022/01/01 06:07:04;;;;;;;;;;;;;;;5.76;100.00;98429.20;1658150;85;20237;-69
2022/01/01 06:09:33;;;;;;;;;;;;;;;5.79;100.00;98423.10;1626968;86;20136;-69
2022/01/01 06:11:59;;;;;;;;;;;;;;;5.80;100.00;98440.24;1643160;86;20132;-70
2022/01/01 06:14:25;;;;;;;;;;;;;;;5.79;100.00;98444.89;1629754;87;20428;-69
2022/01/01 06:16:52;;;;;;;;;;;;;;;5.78;100.00;98443.28;1629724;87;20150;-69
2022/01/01 06:19:18;;;;;;;;;;;;;;;5.81;100.00;98451.38;1629365;87;20083;-69
2022/01/01 06:21:44;;;;;;;;;;;;;;;5.80;100.00;98459.31;1627856;87;21456;-71
2022/01/01 06:24:11;;;;;;;;;;;;;;;5.78;100.00;98468.34;1628357;87;20123;-69
2022/01/01 06:26:37;;;;;;;;;;;;;;;5.78;100.00;98466.42;1627251;87;20766;-70
2022/01/01 06:29:04;;;;;;;;;;;;;;;5.79;100.00;98472.12;1627754;86;20113;-69
2022/01/01 06:31:31;;;;;;;;;;;;;;;5.81;100.00;98469.09;1632385;87;20126;-69
2022/01/01 06:33:57;;;;;;;;;;;;;;;5.81;100.00;98465.80;1628975;87;21809;-68
2022/01/01 06:36:23;;;;;;;;;;;;;;;5.81;100.00;98476.70;1628283;87;20127;-68
2022/01/01 06:38:50;;;;;;;;;;;;;;;5.81;100.00;98481.34;1629354;86;20155;-69
2022/01/01 06:41:18;;;;;;;;;;;;;;;5.78;100.00;98490.13;1632656;87;20084;-68
2022/01/01 06:43:44;;;;;;;;;;;;;;;5.76;100.00;98492.39;1625521;87;20450;-68
2022/01/01 06:46:10;;;;;;;;;;;;;;;5.74;100.00;98492.70;1625353;88;21139;-68
2022/01/01 06:48:36;;;;;;;;;;;;;;;5.79;100.00;98506.72;1625663;88;20092;-69
2022/01/01 06:51:02;;;;;;;;;;;;;;;5.86;100.00;98507.89;1625323;88;20113;-70
2022/01/01 06:53:30;;;;;;;;;;;;;;;5.90;100.00;98505.39;1625255;88;20108;-69
2022/01/01 06:55:59;;;;;;;;;;;;;;;5.92;100.00;98515.42;1625398;88;20436;-69
2022/01/01 06:58:26;;;;;;;;;;;;;;;6.03;100.00;98521.42;1625186;88;21099;-69
2022/01/01 07:00:52;;;;;;;;;;;;;;;6.06;100.00;98529.78;1625148;88;20181;-69
2022/01/01 07:03:22;;;;;;;;;;;;;;;6.11;100.00;98527.48;1625202;88;20134;-69
2022/01/01 07:05:49;;;;;;;;;;;;;;;6.18;100.00;98537.39;1625147;88;20108;-68
2022/01/01 07:08:17;;;;;;;;;;;;;;;6.20;100.00;98532.44;1625283;88;20117;-68
2022/01/01 07:10:45;;;;;;;;;;;;;;;6.27;100.00;98536.89;1625280;88;21213;-69
2022/01/01 07:13:13;;;;;;;;;;;;;;;6.32;100.00;98542.21;1625234;88;20093;-69
2022/01/01 07:15:40;;;;;;;;;;;;;;;6.29;100.00;98537.37;1625207;88;20105;-69
2022/01/01 07:18:06;;;;;;;;;;;;;;;6.25;100.00;98549.46;1625102;88;20097;-69
2022/01/01 07:20:33;;;;;;;;;;;;;;;6.22;100.00;98544.63;1625287;88;20125;-70
2022/01/01 07:23:00;;;;;;;;;;;;;;;6.25;100.00;98548.66;1625253;88;21167;-69
2022/01/01 07:25:28;;;;;;;;;;;;;;;6.29;100.00;98559.98;1643322;85;38441;-69
2022/01/01 07:27:56;;;;;;;;;;;;;;;6.43;100.00;98565.34;1648549;87;20103;-68
2022/01/01 07:30:22;;;;;;;;;;;;;;;6.49;100.00;98572.27;1647178;86;20433;-69
2022/01/01 07:32:48;;;;;;;;;;;;;;;6.51;100.00;98572.77;1646970;87;20119;-68
2022/01/01 07:35:16;;;;;;;;;;;;;;;6.50;100.00;98580.69;1647016;86;22005;-68
2022/01/01 07:37:43;;;;;;;;;;;;;;;6.49;100.00;98579.64;1646955;87;20122;-68
2022/01/01 07:40:13;;;;;;;;;;;;;;;6.42;100.00;98578.72;1647115;86;20123;-68
2022/01/01 07:42:40;;;;;;;;;;;;;;;6.34;100.00;98583.59;1647450;87;20115;-69
2022/01/01 07:45:08;;;;;;;;;;;;;;;6.26;100.00;98584.34;1647029;87;20106;-70
2022/01/01 07:47:35;;;;;;;;;;;;;;;6.26;100.00;98584.34;1647319;87;21735;-69
2022/01/01 07:50:03;;;;;;;;;;;;;;;6.22;100.00;98585.52;1647032;86;20094;-70
2022/01/01 07:52:29;;;;;;;;;;;;;;;6.17;100.00;98587.56;1647084;87;20091;-69
2022/01/01 07:54:56;;;;;;;;;;;;;;;6.13;100.00;98589.29;1647250;87;20213;-74
2022/01/01 07:57:24;;;;;;;;;;;;;;;6.12;100.00;98593.94;1643988;86;20094;-73
2022/01/01 07:59:50;;;;;;;;;;;;;;;6.11;100.00;98598.33;1626541;88;21135;-73
2022/01/01 08:02:16;;;;;;;;;;;;;;;6.08;100.00;98599.75;1626755;88;20529;-70
2022/01/01 08:04:42;;;;;;;;;;;;;;;6.07;100.00;98604.16;1626744;88;20104;-71
2022/01/01 08:07:10;;;;;;;;;;;;;;;6.08;100.00;98609.84;1626476;88;20113;-72
2022/01/01 08:09:38;;;;;;;;;;;;;;;6.04;100.00;98602.84;1626625;88;20103;-72
2022/01/01 08:12:07;;;;;;;;;;;;;;;6.02;100.00;98611.89;1626529;88;21559;-71
2022/01/01 08:14:33;;;;;;;;;;;;;;;6.01;100.00;98614.36;1626536;88;20092;-72
2022/01/01 08:17:02;;;;;;;;;;;;;;;6.00;100.00;98611.95;1626577;88;20096;-71
2022/01/01 08:19:29;;;;;;;;;;;;;;;5.95;100.00;98621.84;1626496;88;20109;-72
2022/01/01 08:21:57;;;;;;;;;;;;;;;5.90;100.00;98618.43;1639189;87;20084;-71
2022/01/01 08:24:24;;;;;;;;;;;;;;;5.86;100.00;98610.59;1637144;87;22007;-71
2022/01/01 08:26:50;;;;;;;;;;;;;;;5.82;100.00;98619.13;1626361;88;20161;-70
2022/01/01 08:29:17;;;;;;;;;;;;;;;5.78;100.00;98619.49;1639731;87;20102;-70
2022/01/01 08:31:44;;;;;;;;;;;;;;;5.72;100.00;98617.47;1641957;87;20192;-70
2022/01/01 08:34:11;;;;;;;;;;;;;;;5.68;100.00;98622.47;1636866;86;20476;-70
2022/01/01 08:36:37;;;;;;;;;;;;;;;5.63;100.00;98623.39;1626504;88;21573;-69
2022/01/01 08:39:05;;;;;;;;;;;;;;;5.61;100.00;98629.13;1626443;88;20105;-69
2022/01/01 08:41:32;;;;;;;;;;;;;;;5.56;100.00;98630.61;1642170;87;20138;-73
2022/01/01 08:44:01;;;;;;;;;;;;;;;5.53;100.00;98624.96;1638432;87;20204;-81
2022/01/01 08:46:27;;;;;;;;;;;;;;;5.51;100.00;98623.91;1633101;86;20432;-74
2022/01/01 08:48:53;;;;;;;;;;;;;;;5.50;100.00;98632.38;1626460;87;21523;-70
2022/01/01 08:51:21;;;;;;;;;;;;;;;5.49;100.00;98632.13;1626704;88;20128;-77
2022/01/01 08:53:48;;;;;;;;;;;;;;;5.47;100.00;98641.15;1626457;87;20113;-82
2022/01/01 08:56:14;;;;;;;;;;;;;;;5.47;100.00;98639.23;1631933;87;20234;-76
2022/01/01 08:58:41;;;;;;;;;;;;;;;5.46;100.00;98636.81;1643374;87;20115;-73
2022/01/01 09:01:07;;;;;;;;;;;;;;;5.44;100.00;98643.12;1632698;86;21510;-73
2022/01/01 09:03:37;;;;;;;;;;;;;;;5.42;100.00;98650.78;1626400;87;20105;-76
2022/01/01 09:06:05;;;;;;;;;;;;;;;5.42;100.00;98645.34;1626676;88;20141;-77
2022/01/01 09:08:32;;;;;;;;;;;;;;;5.41;100.00;98645.09;1626419;87;20429;-75
2022/01/01 09:11:00;;;;;;;;;;;;;;;5.39;100.00;98643.22;1626553;88;20149;-74
2022/01/01 09:13:27;;;;;;;;;;;;;;;5.39;100.00;98650.03;1626690;88;21514;-76
2022/01/01 09:15:54;;;;;;;;;;;;;;;5.41;100.00;98649.17;1626377;87;20144;-77
2022/01/01 09:18:22;;;;;;;;;;;;;;;5.40;100.00;98647.00;1626434;87;20178;-81
2022/01/01 09:20:49;;;;;;;;;;;;;;;5.39;100.00;98646.75;1626415;87;20191;-79
2022/01/01 09:23:17;;;;;;;;;;;;;;;5.37;100.00;98657.13;1626434;87;20093;-74
2022/01/01 09:25:43;;;;;;;;;;;;;;;5.35;100.00;98658.55;1626416;88;22034;-74
2022/01/01 09:28:10;;;;;;;;;;;;;;;5.30;100.00;98642.56;1626462;88;20435;-76
2022/01/01 09:30:37;;;;;;;;;;;;;;;5.27;100.00;98662.22;1626484;88;20092;-69
2022/01/01 09:33:05;;;;;;;;;;;;;;;5.30;100.00;98654.01;1626529;88;20173;-73
2022/01/01 09:35:31;;;;;;;;;;;;;;;5.34;100.00;98661.02;1626465;87;20440;-76
2022/01/01 09:37:58;;;;;;;;;;;;;;;5.34;100.00;98650.94;1626607;87;21144;-77
2022/01/01 09:40:26;;;;;;;;;;;;;;;5.36;100.00;98665.60;1626420;87;20100;-84
2022/01/01 09:42:52;;;;;;;;;;;;;;;5.37;100.00;98646.25;1626722;87;20128;-75
2022/01/01 09:45:20;;;;;;;;;;;;;;;5.42;100.00;98656.22;1626407;87;20635;-73
2022/01/01 09:47:47;;;;;;;;;;;;;;;5.46;100.00;98651.23;1626451;87;20109;-74
2022/01/01 09:50:13;;;;;;;;;;;;;;;5.47;100.00;98660.20;1626373;87;22213;-74
2022/01/01 09:52:40;;;;;;;;;;;;;;;5.45;100.00;98664.59;1641879;85;20465;-75
2022/01/01 09:55:07;;;;;;;;;;;;;;;5.46;100.00;98663.48;1626601;88;20129;-73
2022/01/01 09:57:35;;;;;;;;;;;;;;;5.48;100.00;98667.27;1626421;87;20162;-76
2022/01/01 10:00:01;;;;;;;;;;;;;;;5.49;100.00;98672.41;1626525;87;20156;-73
2022/01/01 10:02:32;;;;;;;;;;;;;;;5.49;100.00;98660.70;1626374;87;21139;-75
2022/01/01 10:05:04;;;;;;;;;;;;;;;5.53;100.00;98663.08;1626145;87;20108;-75
2022/01/01 10:07:31;;;;;;;;;;;;;;;5.56;100.00;98652.39;1630702;87;20223;-75
2022/01/01 10:09:58;;;;;;;;;;;;;;;5.59;100.00;98657.77;1638223;87;20105;-75
2022/01/01 10:12:38;;;;;;;;;;;;;;;5.64;100.00;98659.03;1652458;86;20429;-73
2022/01/01 10:15:07;;;;;;;;;;;;;;;5.67;100.00;98655.70;1650475;86;21813;-76
2022/01/01 10:17:34;;;;;;;;;;;;;;;5.69;100.00;98660.28;1651518;85;20155;-74
2022/01/01 10:20:01;;;;;;;;;;;;;;;5.69;100.00;98657.56;1648201;85;20106;-74
2022/01/01 10:22:29;;;;;;;;;;;;;;;5.70;100.00;98663.81;1649663;87;20107;-74
2022/01/01 10:28:01;;;;;;;;;;;;;;;5.71;100.00;98660.78;1650766;85;21148;-76
2022/01/01 10:30:36;;;;;;;;;;;;;;;5.70;100.00;98668.70;1653246;85;20269;-73
2022/01/01 10:33:10;;;;;;;;;;;;;;;5.71;100.00;98672.23;1649735;86;20118;-74
2022/01/01 10:35:48;;;;;;;;;;;;;;;5.73;100.00;98672.73;1636790;87;20091;-71
2022/01/01 10:38:20;;;;;;;;;;;;;;;5.71;100.00;98677.69;1639116;87;20140;-74
2022/01/01 10:40:47;;;;;;;;;;;;;;;5.68;100.00;98670.92;1642914;87;21163;-73
2022/01/01 10:43:15;;;;;;;;;;;;;;;5.68;100.00;98682.37;1646598;85;20421;-76
2022/01/01 10:45:45;;;;;;;;;;;;;;;5.65;100.00;98671.53;1646044;87;20458;-72
2022/01/01 10:50:45;;;;;;;;;;;;;;;5.62;100.00;98669.42;1638829;85;20421;-75
2022/01/01 10:53:16;;;;;;;;;;;;;;;5.62;100.00;98675.67;1632034;86;21192;-76
2022/01/01 10:55:44;;;;;;;;;;;;;;;5.63;100.00;98676.48;1643511;85;20090;-75
2022/01/01 10:58:14;;;;;;;;;;;;;;;5.63;100.00;98683.28;1641894;86;20113;-72
2022/01/01 11:00:41;;;;;;;;;;;;;;;5.64;100.00;98680.81;1636077;86;20104;-70
2022/01/01 11:03:13;;;;;;;;;;;;;;;5.64;100.00;98681.63;1653597;86;20090;-70
2022/01/01 11:05:39;;;;;;;;;;;;;;;5.64;100.00;98678.09;1653265;86;21171;-71
2022/01/01 11:08:06;;;;;;;;;;;;;;;5.65;100.00;98679.70;1651143;85;20230;-70
2022/01/01 11:10:33;;;;;;;;;;;;;;;5.64;100.00;98674.01;1648016;87;20459;-70
2022/01/01 11:13:00;;;;;;;;;;;;;;;5.63;100.00;98680.01;1647920;87;20481;-71
2022/01/01 11:15:27;;;;;;;;;;;;;;;5.65;100.00;98681.06;1649055;87;20096;-72
2022/01/01 11:17:56;;;;;;;;;;;;;;;5.64;100.00;98680.81;1645544;85;21527;-73
2022/01/01 11:20:22;;;;;;;;;;;;;;;5.63;100.00;98667.75;1641778;85;20102;-72
2022/01/01 11:22:49;;;;;;;;;;;;;;;5.63;100.00;98672.39;1652577;87;20095;-74
2022/01/01 11:25:17;;;;;;;;;;;;;;;5.64;100.00;98677.54;1630180;87;20474;-73
2022/01/01 11:27:45;;;;;;;;;;;;;;;5.66;100.00;98673.70;1642556;87;20487;-76
2022/01/01 11:30:13;;;;;;;;;;;;;;;5.67;100.00;98684.84;1651386;85;21149;-74
2022/01/01 11:32:52;;;;;;;;;;;;;;;5.68;100.00;98681.82;1653193;86;20102;-77
2022/01/01 11:35:22;;;;;;;;;;;;;;;5.70;100.00;98685.05;1653299;86;20449;-76
2022/01/01 11:38:10;;;;;;;;;;;;;;;5.71;100.00;98685.85;1653155;87;20127;-77
2022/01/01 11:40:41;;;;;;;;;;;;;;;5.71;100.00;98677.13;1653178;86;20162;-74
2022/01/01 11:43:38;;;;;;;;;;;;;;;5.73;100.00;98683.08;1653262;87;21201;-72
2022/01/01 11:46:19;;;;;;;;;;;;;;;5.76;100.00;98677.02;1653296;87;20142;-75
2022/01/01 11:48:50;;;;;;;;;;;;;;;5.86;100.00;98671.88;1653198;86;20505;-74
2022/01/01 11:51:33;;;;;;;;;;;;;;;5.97;100.00;98662.41;1653386;87;20434;-76
2022/01/01 11:54:25;;;;;;;;;;;;;;;6.04;100.00;98668.80;1653194;85;20102;-78
2022/01/01 11:57:01;;;;;;;;;;;;;;;6.06;100.00;98662.48;1653532;85;21039;-77
2022/01/01 11:59:41;;;;;;;;;;;;;;;6.11;100.00;98675.44;1631157;85;20098;-76
2022/01/01 12:02:26;;;;;;;;;;;;;;;6.14;100.00;98675.37;1640757;85;20098;-74
2022/01/01 12:04:55;;;;;;;;;;;;;;;6.16;100.00;98664.98;1653134;86;20102;-77
2022/01/01 12:07:29;;;;;;;;;;;;;;;6.18;100.00;98669.56;1653392;86;20090;-77
2022/01/01 12:10:08;;;;;;;;;;;;;;;6.18;100.00;98672.28;1643465;86;21089;-73
2022/01/01 12:12:38;;;;;;;;;;;;;;;6.18;100.00;98670.92;1625958;87;20490;-74
2022/01/01 12:15:06;;;;;;;;;;;;;;;6.17;100.00;98667.95;1636698;85;20090;-74
2022/01/01 12:17:45;;;;;;;;;;;;;;;6.13;100.00;98667.76;1644835;85;20095;-74
2022/01/01 12:20:23;;;;;;;;;;;;;;;6.10;100.00;98673.02;1626459;87;20171;-74
2022/01/01 12:22:50;;;;;;;;;;;;;;;6.07;100.00;98671.71;1626804;88;21113;-75
2022/01/01 12:25:17;;;;;;;;;;;;;;;6.08;100.00;98677.41;1626401;87;20460;-74
2022/01/01 12:27:47;;;;;;;;;;;;;;;6.07;100.00;98677.72;1634736;87;20137;-73
2022/01/01 12:30:32;;;;;;;;;;;;;;;6.05;100.00;98678.58;1653060;85;20079;-74
2022/01/01 12:32:58;;;;;;;;;;;;;;;6.03;100.00;98677.52;1640123;86;20150;-75
2022/01/01 12:35:44;;;;;;;;;;;;;;;6.03;100.00;98684.89;1639666;87;21802;-75
2022/01/01 12:38:13;;;;;;;;;;;;;;;6.00;100.00;98683.59;1639247;87;20096;-74
2022/01/01 12:41:09;;;;;;;;;;;;;;;5.99;100.00;98685.25;1652781;86;20182;-73
2022/01/01 12:43:52;;;;;;;;;;;;;;;5.95;100.00;98685.86;1650686;85;20228;-85
2022/01/01 12:46:20;;;;;;;;;;;;;;;5.94;100.00;98689.70;1647160;87;20143;-70
2022/01/01 12:48:47;;;;;;;;;;;;;;;5.93;100.00;98677.19;1642722;85;21536;-73
2022/01/01 12:51:21;;;;;;;;;;;;;;;5.92;100.00;98686.48;1629594;87;20124;-72
2022/01/01 12:53:52;;;;;;;;;;;;;;;5.92;100.00;98682.39;1625669;87;20189;-69
2022/01/01 12:56:15;;;;;;;;;;;;;;;5.91;100.00;98684.86;1624633;88;20523;-72
2022/01/01 12:58:47;;;;;;;;;;;;;;;5.90;100.00;98685.98;1625327;87;20128;-72
2022/01/01 13:01:18;;;;;;;;;;;;;;;5.89;100.00;98683.00;1638069;86;21146;-71
2022/01/01 13:03:47;;;;;;;;;;;;;;;5.92;100.00;98689.76;1648261;85;20133;-71